Terminal Aerodrome Forecast
Issued by NWS

Home | Current Version | Previous Version | Graphics & Text | Print | Product List | Glossary On
Versions: 1 2 3 4 5 6 7 8 9 10 11 12 13 14 15 16 17 18 19
294
FTUS43 KLSX 081008 AAB
TAFSUS
TAF AMD
KSUS 081008Z 0810/0906 29017G27KT P6SM -SHSN OVC040
      TEMPO 0810/0814 BKN025
     FM081400 31019G30KT P6SM -SN OVC025
     FM082300 31017G27KT P6SM OVC030=

USA.gov is the U.S. government's official web portal to all federal, state and local government web resources and services.